Portada
METAR-TAF:

METAR-TAF

Aeroports :

Laghouat, Algèria

latitud: 33-46N, longitud: 002-56E, altitud: 765 m

METAR: manca

Hora: 22:23 (21:23 UTC)

Pronòstic

L'informe es va fer fa 1 hora i 23 minuts, a les 20:00 UTC
Pronòstic vàlid del 18 a les 21 UTC al 19 a les 06 UTC
Vent 18 kt del Sud/Sud-Oest
Visibilitat: 8000 m
Núvols disperses a una alçada de 3000 ft
Núvols disperses a una alçada de 8000 ft
Probabilitat 30% :
Temporalment
l' 18 a les 21 UTC al 18 a les 24 UTC
Vent 20 kt del Oest/Sud-Oest amb ràfegues de 30 kt
Visibilitat: 5000 m
torb baixa de sorra

TAF: DAUL 182000Z 1821/1906 20018KT 8000 SCT030 SCT080 PROB30 TEMPO 1821/1824 24020G30KT 5000 DRSA

Observacions i pronòstics meteorològics de més de 4000 aeroports (METAR i TAF).

Les estacions disponibles són els punts grocs i vermells al mapa.

Posi el ratolí al punt desitjat per veure el nom de l'estació.

Feu clic per veure les observacions i els pronòstics meteorològics.

Per canviar el mapa: feu clic els botons verds amb una creu de color negre per apropar; al botó verd amb un guió per allunyar la imatge; o en les fletxes verdes per a mapes adjacents.


METAR-TAF: